sensor_id;sensor_type;location;lat;lon;timestamp;temperature;humidity
57829;DHT22;43657;52.698;6.314;2023-04-25T00:00:30;5.10;99.90
57829;DHT22;43657;52.698;6.314;2023-04-25T00:02:55;5.00;99.90
57829;DHT22;43657;52.698;6.314;2023-04-25T00:05:25;4.90;99.90
57829;DHT22;43657;52.698;6.314;2023-04-25T00:07:51;4.90;99.90
57829;DHT22;43657;52.698;6.314;2023-04-25T00:10:17;4.80;99.90
57829;DHT22;43657;52.698;6.314;2023-04-25T00:12:43;4.70;99.90
57829;DHT22;43657;52.698;6.314;2023-04-25T00:15:08;4.60;99.90
57829;DHT22;43657;52.698;6.314;2023-04-25T00:17:34;4.60;99.90
57829;DHT22;43657;52.698;6.314;2023-04-25T00:20:01;4.50;99.90
57829;DHT22;43657;52.698;6.314;2023-04-25T00:22:30;4.40;99.90
57829;DHT22;43657;52.698;6.314;2023-04-25T00:24:56;4.40;99.90
57829;DHT22;43657;52.698;6.314;2023-04-25T00:27:25;4.30;99.90
57829;DHT22;43657;52.698;6.314;2023-04-25T00:29:51;4.20;99.90
57829;DHT22;43657;52.698;6.314;2023-04-25T00:32:16;4.10;99.90
57829;DHT22;43657;52.698;6.314;2023-04-25T00:34:42;4.10;99.90
57829;DHT22;43657;52.698;6.314;2023-04-25T00:37:07;4.10;99.90
57829;DHT22;43657;52.698;6.314;2023-04-25T00:39:33;4.00;99.90
57829;DHT22;43657;52.698;6.314;2023-04-25T00:41:59;4.00;99.90
57829;DHT22;43657;52.698;6.314;2023-04-25T00:44:26;4.00;99.90
57829;DHT22;43657;52.698;6.314;2023-04-25T00:46:53;4.00;99.90
57829;DHT22;43657;52.698;6.314;2023-04-25T00:49:19;3.90;99.90
57829;DHT22;43657;52.698;6.314;2023-04-25T00:51:45;3.90;99.90
57829;DHT22;43657;52.698;6.314;2023-04-25T00:54:14;3.90;99.90
57829;DHT22;43657;52.698;6.314;2023-04-25T00:56:40;3.90;99.90
57829;DHT22;43657;52.698;6.314;2023-04-25T00:59:06;3.90;99.90
57829;DHT22;43657;52.698;6.314;2023-04-25T01:01:32;4.00;99.90
57829;DHT22;43657;52.698;6.314;2023-04-25T01:03:58;4.00;99.90
57829;DHT22;43657;52.698;6.314;2023-04-25T01:06:24;4.10;99.90
57829;DHT22;43657;52.698;6.314;2023-04-25T01:08:51;4.10;99.90
57829;DHT22;43657;52.698;6.314;2023-04-25T01:11:17;4.10;99.90
57829;DHT22;43657;52.698;6.314;2023-04-25T01:13:43;4.10;99.90
57829;DHT22;43657;52.698;6.314;2023-04-25T01:16:08;4.00;99.90
57829;DHT22;43657;52.698;6.314;2023-04-25T01:18:34;4.00;99.90
57829;DHT22;43657;52.698;6.314;2023-04-25T01:21:10;3.90;99.90
57829;DHT22;43657;52.698;6.314;2023-04-25T01:23:37;3.90;99.90
57829;DHT22;43657;52.698;6.314;2023-04-25T01:26:03;3.90;99.90
57829;DHT22;43657;52.698;6.314;2023-04-25T01:28:29;3.90;99.90
57829;DHT22;43657;52.698;6.314;2023-04-25T01:30:56;4.00;99.90
57829;DHT22;43657;52.698;6.314;2023-04-25T01:33:22;4.00;99.90
57829;DHT22;43657;52.698;6.314;2023-04-25T01:35:48;4.10;99.90
57829;DHT22;43657;52.698;6.314;2023-04-25T01:38:14;4.20;99.90
57829;DHT22;43657;52.698;6.314;2023-04-25T01:40:40;4.30;99.90
57829;DHT22;43657;52.698;6.314;2023-04-25T01:43:07;4.40;99.90
57829;DHT22;43657;52.698;6.314;2023-04-25T01:45:37;4.50;99.90
57829;DHT22;43657;52.698;6.314;2023-04-25T01:48:05;4.50;99.90
57829;DHT22;43657;52.698;6.314;2023-04-25T01:50:30;4.60;99.90
57829;DHT22;43657;52.698;6.314;2023-04-25T01:52:56;4.70;99.90
57829;DHT22;43657;52.698;6.314;2023-04-25T01:55:22;4.70;99.90
57829;DHT22;43657;52.698;6.314;2023-04-25T01:57:47;4.70;99.90
57829;DHT22;43657;52.698;6.314;2023-04-25T02:00:13;4.80;99.90
57829;DHT22;43657;52.698;6.314;2023-04-25T02:02:39;4.80;99.90
57829;DHT22;43657;52.698;6.314;2023-04-25T02:05:05;4.80;99.90
57829;DHT22;43657;52.698;6.314;2023-04-25T02:07:32;4.80;99.90
57829;DHT22;43657;52.698;6.314;2023-04-25T02:09:57;4.90;99.90
57829;DHT22;43657;52.698;6.314;2023-04-25T02:12:23;4.90;99.90
57829;DHT22;43657;52.698;6.314;2023-04-25T02:14:48;4.90;99.90
57829;DHT22;43657;52.698;6.314;2023-04-25T02:17:14;4.90;99.90
57829;DHT22;43657;52.698;6.314;2023-04-25T02:19:39;4.90;99.90
57829;DHT22;43657;52.698;6.314;2023-04-25T02:22:05;4.90;99.90
57829;DHT22;43657;52.698;6.314;2023-04-25T02:24:30;4.90;99.90
57829;DHT22;43657;52.698;6.314;2023-04-25T02:26:57;4.90;99.90
57829;DHT22;43657;52.698;6.314;2023-04-25T02:29:23;4.80;99.90
57829;DHT22;43657;52.698;6.314;2023-04-25T02:31:48;4.80;99.90
57829;DHT22;43657;52.698;6.314;2023-04-25T02:34:14;4.80;99.90
57829;DHT22;43657;52.698;6.314;2023-04-25T02:36:39;4.80;99.90
57829;DHT22;43657;52.698;6.314;2023-04-25T02:39:05;4.80;99.90
57829;DHT22;43657;52.698;6.314;2023-04-25T02:41:31;4.90;99.90
57829;DHT22;43657;52.698;6.314;2023-04-25T02:43:56;4.90;99.90
57829;DHT22;43657;52.698;6.314;2023-04-25T02:46:22;4.80;99.90
57829;DHT22;43657;52.698;6.314;2023-04-25T02:48:47;4.80;99.90
57829;DHT22;43657;52.698;6.314;2023-04-25T02:51:13;4.90;99.90
57829;DHT22;43657;52.698;6.314;2023-04-25T02:53:39;4.90;99.90
57829;DHT22;43657;52.698;6.314;2023-04-25T02:56:05;4.90;99.90
57829;DHT22;43657;52.698;6.314;2023-04-25T02:58:33;4.90;99.90
57829;DHT22;43657;52.698;6.314;2023-04-25T03:00:58;4.90;99.90
57829;DHT22;43657;52.698;6.314;2023-04-25T03:03:24;4.90;99.90
57829;DHT22;43657;52.698;6.314;2023-04-25T03:05:50;4.90;99.90
57829;DHT22;43657;52.698;6.314;2023-04-25T03:08:17;4.90;99.90
57829;DHT22;43657;52.698;6.314;2023-04-25T03:10:43;4.90;99.90
57829;DHT22;43657;52.698;6.314;2023-04-25T03:13:09;4.80;99.90
57829;DHT22;43657;52.698;6.314;2023-04-25T03:15:35;4.80;99.90
57829;DHT22;43657;52.698;6.314;2023-04-25T03:18:00;4.80;99.90
57829;DHT22;43657;52.698;6.314;2023-04-25T03:20:26;4.80;99.90
57829;DHT22;43657;52.698;6.314;2023-04-25T03:22:52;4.80;99.90
57829;DHT22;43657;52.698;6.314;2023-04-25T03:25:17;4.80;99.90
57829;DHT22;43657;52.698;6.314;2023-04-25T03:27:43;4.70;99.90
57829;DHT22;43657;52.698;6.314;2023-04-25T03:30:09;4.70;99.90
57829;DHT22;43657;52.698;6.314;2023-04-25T03:32:34;4.70;99.90
57829;DHT22;43657;52.698;6.314;2023-04-25T03:35:00;4.70;99.90
57829;DHT22;43657;52.698;6.314;2023-04-25T03:37:26;4.70;99.90
57829;DHT22;43657;52.698;6.314;2023-04-25T03:39:51;4.70;99.90
57829;DHT22;43657;52.698;6.314;2023-04-25T03:42:17;4.60;99.90
57829;DHT22;43657;52.698;6.314;2023-04-25T03:44:43;4.60;99.90
57829;DHT22;43657;52.698;6.314;2023-04-25T03:47:08;4.60;99.90
57829;DHT22;43657;52.698;6.314;2023-04-25T03:49:34;4.60;99.90
57829;DHT22;43657;52.698;6.314;2023-04-25T03:52:00;4.60;99.90
57829;DHT22;43657;52.698;6.314;2023-04-25T03:54:26;4.60;99.90
57829;DHT22;43657;52.698;6.314;2023-04-25T03:56:51;4.60;99.90
57829;DHT22;43657;52.698;6.314;2023-04-25T03:59:17;4.60;99.90
57829;DHT22;43657;52.698;6.314;2023-04-25T04:01:42;4.60;99.90
57829;DHT22;43657;52.698;6.314;2023-04-25T04:04:08;4.60;99.90
57829;DHT22;43657;52.698;6.314;2023-04-25T04:06:34;4.50;99.90
57829;DHT22;43657;52.698;6.314;2023-04-25T04:08:59;4.50;99.90
57829;DHT22;43657;52.698;6.314;2023-04-25T04:11:25;4.50;99.90
57829;DHT22;43657;52.698;6.314;2023-04-25T04:13:51;4.50;99.90
57829;DHT22;43657;52.698;6.314;2023-04-25T04:16:16;4.50;99.90
57829;DHT22;43657;52.698;6.314;2023-04-25T04:18:42;4.40;99.90
57829;DHT22;43657;52.698;6.314;2023-04-25T04:21:07;4.30;99.90
57829;DHT22;43657;52.698;6.314;2023-04-25T04:23:33;4.30;99.90
57829;DHT22;43657;52.698;6.314;2023-04-25T04:25:59;4.30;99.90
57829;DHT22;43657;52.698;6.314;2023-04-25T04:28:25;4.30;99.90
57829;DHT22;43657;52.698;6.314;2023-04-25T04:30:52;4.30;99.90
57829;DHT22;43657;52.698;6.314;2023-04-25T04:33:17;4.30;99.90
57829;DHT22;43657;52.698;6.314;2023-04-25T04:35:46;4.30;99.90
57829;DHT22;43657;52.698;6.314;2023-04-25T04:38:13;4.30;99.90
57829;DHT22;43657;52.698;6.314;2023-04-25T04:40:41;4.30;99.90
57829;DHT22;43657;52.698;6.314;2023-04-25T04:43:08;4.30;99.90
57829;DHT22;43657;52.698;6.314;2023-04-25T04:45:36;4.40;99.90
57829;DHT22;43657;52.698;6.314;2023-04-25T04:48:05;4.40;99.90
57829;DHT22;43657;52.698;6.314;2023-04-25T04:50:31;4.40;99.90
57829;DHT22;43657;52.698;6.314;2023-04-25T04:52:57;4.40;99.90
57829;DHT22;43657;52.698;6.314;2023-04-25T04:55:23;4.40;99.90
57829;DHT22;43657;52.698;6.314;2023-04-25T04:57:49;4.50;99.90
57829;DHT22;43657;52.698;6.314;2023-04-25T05:00:14;4.40;99.90
57829;DHT22;43657;52.698;6.314;2023-04-25T05:02:40;4.50;99.90
57829;DHT22;43657;52.698;6.314;2023-04-25T05:05:07;4.50;99.90
57829;DHT22;43657;52.698;6.314;2023-04-25T05:07:33;4.50;99.90
57829;DHT22;43657;52.698;6.314;2023-04-25T05:09:59;4.50;99.90
57829;DHT22;43657;52.698;6.314;2023-04-25T05:12:25;4.60;99.90
57829;DHT22;43657;52.698;6.314;2023-04-25T05:14:50;4.60;99.90
57829;DHT22;43657;52.698;6.314;2023-04-25T05:17:16;4.60;99.90
57829;DHT22;43657;52.698;6.314;2023-04-25T05:19:41;4.60;99.90
57829;DHT22;43657;52.698;6.314;2023-04-25T05:22:07;4.70;99.90
57829;DHT22;43657;52.698;6.314;2023-04-25T05:24:32;4.70;99.90
57829;DHT22;43657;52.698;6.314;2023-04-25T05:26:58;4.80;99.90
57829;DHT22;43657;52.698;6.314;2023-04-25T05:29:23;4.70;99.90
57829;DHT22;43657;52.698;6.314;2023-04-25T05:31:49;4.70;99.90
57829;DHT22;43657;52.698;6.314;2023-04-25T05:34:15;4.70;99.90
57829;DHT22;43657;52.698;6.314;2023-04-25T05:36:41;4.70;99.90
57829;DHT22;43657;52.698;6.314;2023-04-25T05:39:07;4.60;99.90
57829;DHT22;43657;52.698;6.314;2023-04-25T05:41:34;4.60;99.90
57829;DHT22;43657;52.698;6.314;2023-04-25T05:43:59;4.60;99.90
57829;DHT22;43657;52.698;6.314;2023-04-25T05:46:25;4.60;99.90
57829;DHT22;43657;52.698;6.314;2023-04-25T05:48:50;4.70;99.90
57829;DHT22;43657;52.698;6.314;2023-04-25T05:51:16;4.80;99.90
57829;DHT22;43657;52.698;6.314;2023-04-25T05:53:43;5.00;99.90
57829;DHT22;43657;52.698;6.314;2023-04-25T05:56:09;5.10;99.90
57829;DHT22;43657;52.698;6.314;2023-04-25T05:58:35;5.30;99.90
57829;DHT22;43657;52.698;6.314;2023-04-25T06:01:01;5.30;99.90
57829;DHT22;43657;52.698;6.314;2023-04-25T06:03:26;5.40;99.90
57829;DHT22;43657;52.698;6.314;2023-04-25T06:05:52;5.50;99.90
57829;DHT22;43657;52.698;6.314;2023-04-25T06:08:17;5.50;99.90
57829;DHT22;43657;52.698;6.314;2023-04-25T06:10:43;5.50;99.90
57829;DHT22;43657;52.698;6.314;2023-04-25T06:13:08;5.60;99.90
57829;DHT22;43657;52.698;6.314;2023-04-25T06:15:34;5.60;99.90
57829;DHT22;43657;52.698;6.314;2023-04-25T06:18:00;5.60;99.90
57829;DHT22;43657;52.698;6.314;2023-04-25T06:20:25;5.70;99.90
57829;DHT22;43657;52.698;6.314;2023-04-25T06:22:51;5.70;99.90
57829;DHT22;43657;52.698;6.314;2023-04-25T06:25:18;5.90;99.90
57829;DHT22;43657;52.698;6.314;2023-04-25T06:27:44;6.00;99.90
57829;DHT22;43657;52.698;6.314;2023-04-25T06:30:10;6.10;99.90
57829;DHT22;43657;52.698;6.314;2023-04-25T06:32:37;6.30;99.90
57829;DHT22;43657;52.698;6.314;2023-04-25T06:35:03;6.30;99.90
57829;DHT22;43657;52.698;6.314;2023-04-25T06:37:29;6.30;99.90
57829;DHT22;43657;52.698;6.314;2023-04-25T06:39:55;6.30;99.90
57829;DHT22;43657;52.698;6.314;2023-04-25T06:42:21;6.30;99.90
57829;DHT22;43657;52.698;6.314;2023-04-25T06:44:46;6.40;99.90
57829;DHT22;43657;52.698;6.314;2023-04-25T06:47:12;6.60;99.90
57829;DHT22;43657;52.698;6.314;2023-04-25T06:49:37;6.90;99.90
57829;DHT22;43657;52.698;6.314;2023-04-25T06:52:03;7.00;99.90
57829;DHT22;43657;52.698;6.314;2023-04-25T06:54:28;7.10;99.90
57829;DHT22;43657;52.698;6.314;2023-04-25T06:56:55;7.20;99.90
57829;DHT22;43657;52.698;6.314;2023-04-25T06:59:21;7.40;99.90
57829;DHT22;43657;52.698;6.314;2023-04-25T07:01:46;7.60;99.90
57829;DHT22;43657;52.698;6.314;2023-04-25T07:04:12;7.70;99.90
57829;DHT22;43657;52.698;6.314;2023-04-25T07:06:38;7.70;99.90
57829;DHT22;43657;52.698;6.314;2023-04-25T07:09:08;7.80;99.90
57829;DHT22;43657;52.698;6.314;2023-04-25T07:11:37;7.90;99.90
57829;DHT22;43657;52.698;6.314;2023-04-25T07:14:03;8.10;99.90
57829;DHT22;43657;52.698;6.314;2023-04-25T07:16:28;8.30;99.90
57829;DHT22;43657;52.698;6.314;2023-04-25T07:18:54;8.30;99.90
57829;DHT22;43657;52.698;6.314;2023-04-25T07:21:19;8.30;99.90
57829;DHT22;43657;52.698;6.314;2023-04-25T07:23:45;8.40;99.90
57829;DHT22;43657;52.698;6.314;2023-04-25T07:26:11;8.60;99.90
57829;DHT22;43657;52.698;6.314;2023-04-25T07:28:36;8.70;99.90
57829;DHT22;43657;52.698;6.314;2023-04-25T07:31:02;8.80;99.90
57829;DHT22;43657;52.698;6.314;2023-04-25T07:33:28;8.80;99.90
57829;DHT22;43657;52.698;6.314;2023-04-25T07:35:54;8.70;99.90
57829;DHT22;43657;52.698;6.314;2023-04-25T07:38:20;8.50;99.90
57829;DHT22;43657;52.698;6.314;2023-04-25T07:40:50;8.30;99.90
57829;DHT22;43657;52.698;6.314;2023-04-25T07:43:16;8.10;99.90
57829;DHT22;43657;52.698;6.314;2023-04-25T07:45:43;7.90;99.90
57829;DHT22;43657;52.698;6.314;2023-04-25T07:48:16;7.70;99.90
57829;DHT22;43657;52.698;6.314;2023-04-25T07:50:41;7.40;99.90
57829;DHT22;43657;52.698;6.314;2023-04-25T07:53:07;7.30;99.90
57829;DHT22;43657;52.698;6.314;2023-04-25T07:55:32;7.30;99.90
57829;DHT22;43657;52.698;6.314;2023-04-25T07:57:58;7.30;99.90
57829;DHT22;43657;52.698;6.314;2023-04-25T08:00:23;7.40;99.90
57829;DHT22;43657;52.698;6.314;2023-04-25T08:02:51;7.60;99.90
57829;DHT22;43657;52.698;6.314;2023-04-25T08:05:16;7.90;99.90
57829;DHT22;43657;52.698;6.314;2023-04-25T08:07:42;8.20;99.90
57829;DHT22;43657;52.698;6.314;2023-04-25T08:10:09;8.50;99.90
57829;DHT22;43657;52.698;6.314;2023-04-25T08:12:35;8.70;99.90
57829;DHT22;43657;52.698;6.314;2023-04-25T08:15:00;8.60;99.90
57829;DHT22;43657;52.698;6.314;2023-04-25T08:17:26;8.40;99.90
57829;DHT22;43657;52.698;6.314;2023-04-25T08:19:52;7.90;99.90
57829;DHT22;43657;52.698;6.314;2023-04-25T08:22:17;7.50;99.90
57829;DHT22;43657;52.698;6.314;2023-04-25T08:24:43;7.00;99.90
57829;DHT22;43657;52.698;6.314;2023-04-25T08:27:08;6.60;99.90
57829;DHT22;43657;52.698;6.314;2023-04-25T08:29:34;6.30;99.90
57829;DHT22;43657;52.698;6.314;2023-04-25T08:32:00;6.20;99.90
57829;DHT22;43657;52.698;6.314;2023-04-25T08:34:26;6.20;99.90
57829;DHT22;43657;52.698;6.314;2023-04-25T08:36:52;6.30;99.90
57829;DHT22;43657;52.698;6.314;2023-04-25T08:39:17;6.50;99.90
57829;DHT22;43657;52.698;6.314;2023-04-25T08:41:43;6.70;99.90
57829;DHT22;43657;52.698;6.314;2023-04-25T08:44:11;6.90;99.90
57829;DHT22;43657;52.698;6.314;2023-04-25T08:46:38;7.10;99.90
57829;DHT22;43657;52.698;6.314;2023-04-25T08:49:07;7.30;99.90
57829;DHT22;43657;52.698;6.314;2023-04-25T08:51:33;7.70;99.90
57829;DHT22;43657;52.698;6.314;2023-04-25T08:54:12;8.10;99.90
57829;DHT22;43657;52.698;6.314;2023-04-25T08:56:41;8.70;99.90
57829;DHT22;43657;52.698;6.314;2023-04-25T08:59:09;9.00;99.90
57829;DHT22;43657;52.698;6.314;2023-04-25T09:01:35;9.80;99.90
57829;DHT22;43657;52.698;6.314;2023-04-25T09:04:01;10.90;99.90
57829;DHT22;43657;52.698;6.314;2023-04-25T09:06:28;11.80;99.90
57829;DHT22;43657;52.698;6.314;2023-04-25T09:08:54;12.50;99.90
57829;DHT22;43657;52.698;6.314;2023-04-25T09:11:19;13.10;99.90
57829;DHT22;43657;52.698;6.314;2023-04-25T09:13:45;13.50;99.90
57829;DHT22;43657;52.698;6.314;2023-04-25T09:16:11;14.10;99.90
57829;DHT22;43657;52.698;6.314;2023-04-25T09:18:37;14.60;99.90
57829;DHT22;43657;52.698;6.314;2023-04-25T09:21:10;14.50;99.90
57829;DHT22;43657;52.698;6.314;2023-04-25T09:23:47;14.00;99.90
57829;DHT22;43657;52.698;6.314;2023-04-25T09:26:18;13.20;99.90
57829;DHT22;43657;52.698;6.314;2023-04-25T09:28:44;12.80;99.90
57829;DHT22;43657;52.698;6.314;2023-04-25T09:31:11;12.90;99.90
57829;DHT22;43657;52.698;6.314;2023-04-25T09:33:37;13.30;99.90
57829;DHT22;43657;52.698;6.314;2023-04-25T09:36:05;13.70;99.90
57829;DHT22;43657;52.698;6.314;2023-04-25T09:38:43;14.10;99.90
57829;DHT22;43657;52.698;6.314;2023-04-25T09:41:09;14.40;99.90
57829;DHT22;43657;52.698;6.314;2023-04-25T09:43:36;14.70;99.90
57829;DHT22;43657;52.698;6.314;2023-04-25T09:46:02;15.00;99.90
57829;DHT22;43657;52.698;6.314;2023-04-25T09:48:28;15.30;99.90
57829;DHT22;43657;52.698;6.314;2023-04-25T09:53:39;15.30;99.90
57829;DHT22;43657;52.698;6.314;2023-04-25T09:56:06;15.10;99.90
57829;DHT22;43657;52.698;6.314;2023-04-25T09:58:34;15.00;99.90
57829;DHT22;43657;52.698;6.314;2023-04-25T10:01:10;15.10;99.90
57829;DHT22;43657;52.698;6.314;2023-04-25T10:03:37;15.30;99.90
57829;DHT22;43657;52.698;6.314;2023-04-25T10:06:15;15.30;99.90
57829;DHT22;43657;52.698;6.314;2023-04-25T10:08:44;15.50;99.90
57829;DHT22;43657;52.698;6.314;2023-04-25T10:11:10;15.80;99.90
57829;DHT22;43657;52.698;6.314;2023-04-25T10:13:36;15.90;99.90
57829;DHT22;43657;52.698;6.314;2023-04-25T10:16:03;15.80;99.90
57829;DHT22;43657;52.698;6.314;2023-04-25T10:18:30;15.30;99.90
57829;DHT22;43657;52.698;6.314;2023-04-25T10:20:59;15.10;99.90
57829;DHT22;43657;52.698;6.314;2023-04-25T10:23:25;14.60;99.90
57829;DHT22;43657;52.698;6.314;2023-04-25T10:25:52;13.70;99.90
57829;DHT22;43657;52.698;6.314;2023-04-25T10:28:20;12.70;99.90
57829;DHT22;43657;52.698;6.314;2023-04-25T10:31:04;11.60;99.90
57829;DHT22;43657;52.698;6.314;2023-04-25T10:33:33;10.60;99.90
57829;DHT22;43657;52.698;6.314;2023-04-25T10:36:15;9.90;99.90
57829;DHT22;43657;52.698;6.314;2023-04-25T10:38:43;9.60;99.90
57829;DHT22;43657;52.698;6.314;2023-04-25T10:41:10;9.40;99.90
57829;DHT22;43657;52.698;6.314;2023-04-25T10:43:43;9.40;99.90
57829;DHT22;43657;52.698;6.314;2023-04-25T10:46:28;9.50;99.90
57829;DHT22;43657;52.698;6.314;2023-04-25T10:49:01;9.60;99.90
57829;DHT22;43657;52.698;6.314;2023-04-25T10:51:34;9.60;99.90
57829;DHT22;43657;52.698;6.314;2023-04-25T10:54:05;9.50;99.90
57829;DHT22;43657;52.698;6.314;2023-04-25T10:56:44;9.60;99.90
57829;DHT22;43657;52.698;6.314;2023-04-25T10:59:19;9.60;99.90
57829;DHT22;43657;52.698;6.314;2023-04-25T11:01:52;10.00;99.90
57829;DHT22;43657;52.698;6.314;2023-04-25T11:04:30;10.20;99.90
57829;DHT22;43657;52.698;6.314;2023-04-25T11:07:17;10.40;99.90
57829;DHT22;43657;52.698;6.314;2023-04-25T11:09:49;10.60;99.90
57829;DHT22;43657;52.698;6.314;2023-04-25T11:12:15;11.20;99.90
57829;DHT22;43657;52.698;6.314;2023-04-25T11:14:41;11.80;99.90
57829;DHT22;43657;52.698;6.314;2023-04-25T11:17:18;12.90;99.90
57829;DHT22;43657;52.698;6.314;2023-04-25T11:19:43;14.10;99.90
57829;DHT22;43657;52.698;6.314;2023-04-25T11:22:10;14.60;99.90
57829;DHT22;43657;52.698;6.314;2023-04-25T11:24:36;14.80;99.90
57829;DHT22;43657;52.698;6.314;2023-04-25T11:27:05;14.80;99.90
57829;DHT22;43657;52.698;6.314;2023-04-25T11:29:34;14.80;99.90
57829;DHT22;43657;52.698;6.314;2023-04-25T11:32:00;14.70;99.90
57829;DHT22;43657;52.698;6.314;2023-04-25T11:34:27;14.90;99.90
57829;DHT22;43657;52.698;6.314;2023-04-25T11:36:56;15.30;99.90
57829;DHT22;43657;52.698;6.314;2023-04-25T11:39:23;15.30;99.90
57829;DHT22;43657;52.698;6.314;2023-04-25T11:41:49;15.20;99.90
57829;DHT22;43657;52.698;6.314;2023-04-25T11:44:19;15.50;99.90
57829;DHT22;43657;52.698;6.314;2023-04-25T11:46:45;15.90;99.90
57829;DHT22;43657;52.698;6.314;2023-04-25T11:49:12;15.50;99.20
57829;DHT22;43657;52.698;6.314;2023-04-25T11:51:47;14.70;99.90
57829;DHT22;43657;52.698;6.314;2023-04-25T11:54:14;13.90;90.80
57829;DHT22;43657;52.698;6.314;2023-04-25T11:56:44;14.00;99.90
57829;DHT22;43657;52.698;6.314;2023-04-25T11:59:09;14.60;99.90
57829;DHT22;43657;52.698;6.314;2023-04-25T12:01:37;14.60;91.10
57829;DHT22;43657;52.698;6.314;2023-04-25T12:04:23;14.00;73.20
57829;DHT22;43657;52.698;6.314;2023-04-25T12:06:51;13.40;77.30
57829;DHT22;43657;52.698;6.314;2023-04-25T12:09:19;13.10;90.90
57829;DHT22;43657;52.698;6.314;2023-04-25T12:11:54;12.70;99.90
57829;DHT22;43657;52.698;6.314;2023-04-25T12:14:23;12.10;99.90
57829;DHT22;43657;52.698;6.314;2023-04-25T12:16:50;11.40;99.90
57829;DHT22;43657;52.698;6.314;2023-04-25T12:19:17;11.50;99.90
57829;DHT22;43657;52.698;6.314;2023-04-25T12:21:43;12.60;99.90
57829;DHT22;43657;52.698;6.314;2023-04-25T12:24:11;13.90;99.90
57829;DHT22;43657;52.698;6.314;2023-04-25T12:27:01;15.00;99.90
57829;DHT22;43657;52.698;6.314;2023-04-25T12:29:32;15.50;99.90
57829;DHT22;43657;52.698;6.314;2023-04-25T12:31:59;14.60;99.80
57829;DHT22;43657;52.698;6.314;2023-04-25T12:34:27;13.50;99.90
57829;DHT22;43657;52.698;6.314;2023-04-25T12:36:52;12.60;99.90
57829;DHT22;43657;52.698;6.314;2023-04-25T12:39:23;12.00;99.90
57829;DHT22;43657;52.698;6.314;2023-04-25T12:41:49;12.30;99.90
57829;DHT22;43657;52.698;6.314;2023-04-25T12:44:15;12.80;99.90
57829;DHT22;43657;52.698;6.314;2023-04-25T12:46:44;12.70;99.90
57829;DHT22;43657;52.698;6.314;2023-04-25T12:49:13;12.20;99.90
57829;DHT22;43657;52.698;6.314;2023-04-25T12:51:39;11.90;99.90
57829;DHT22;43657;52.698;6.314;2023-04-25T12:54:07;11.70;99.90
57829;DHT22;43657;52.698;6.314;2023-04-25T12:56:34;12.00;99.90
57829;DHT22;43657;52.698;6.314;2023-04-25T12:59:00;12.70;99.90
57829;DHT22;43657;52.698;6.314;2023-04-25T13:01:26;13.40;99.90
57829;DHT22;43657;52.698;6.314;2023-04-25T13:03:52;14.30;99.90
57829;DHT22;43657;52.698;6.314;2023-04-25T13:06:19;15.10;99.90
57829;DHT22;43657;52.698;6.314;2023-04-25T13:08:45;15.90;99.90
57829;DHT22;43657;52.698;6.314;2023-04-25T13:11:11;16.40;90.40
57829;DHT22;43657;52.698;6.314;2023-04-25T13:13:37;16.70;99.00
57829;DHT22;43657;52.698;6.314;2023-04-25T13:16:06;16.70;91.10
57829;DHT22;43657;52.698;6.314;2023-04-25T13:18:33;16.00;85.60
57829;DHT22;43657;52.698;6.314;2023-04-25T13:20:59;14.90;81.20
57829;DHT22;43657;52.698;6.314;2023-04-25T13:23:28;13.70;81.90
57829;DHT22;43657;52.698;6.314;2023-04-25T13:25:55;12.30;96.10
57829;DHT22;43657;52.698;6.314;2023-04-25T13:28:23;11.60;99.90
57829;DHT22;43657;52.698;6.314;2023-04-25T13:30:49;11.10;99.90
57829;DHT22;43657;52.698;6.314;2023-04-25T13:33:15;10.80;99.90
57829;DHT22;43657;52.698;6.314;2023-04-25T13:35:43;11.30;99.90
57829;DHT22;43657;52.698;6.314;2023-04-25T13:38:12;12.60;99.90
57829;DHT22;43657;52.698;6.314;2023-04-25T13:40:38;13.80;99.90
57829;DHT22;43657;52.698;6.314;2023-04-25T13:43:04;14.80;99.90
57829;DHT22;43657;52.698;6.314;2023-04-25T13:45:31;15.50;99.90
57829;DHT22;43657;52.698;6.314;2023-04-25T13:48:00;15.40;84.30
57829;DHT22;43657;52.698;6.314;2023-04-25T13:50:26;14.30;80.10
57829;DHT22;43657;52.698;6.314;2023-04-25T13:52:51;13.30;84.50
57829;DHT22;43657;52.698;6.314;2023-04-25T13:55:17;12.50;98.10
57829;DHT22;43657;52.698;6.314;2023-04-25T13:57:43;11.90;99.90
57829;DHT22;43657;52.698;6.314;2023-04-25T14:00:10;11.40;99.90
57829;DHT22;43657;52.698;6.314;2023-04-25T14:02:36;11.00;99.90
57829;DHT22;43657;52.698;6.314;2023-04-25T14:05:03;10.70;99.90
57829;DHT22;43657;52.698;6.314;2023-04-25T14:07:29;10.60;99.90
57829;DHT22;43657;52.698;6.314;2023-04-25T14:09:55;10.50;99.90
57829;DHT22;43657;52.698;6.314;2023-04-25T14:12:23;10.70;99.90
57829;DHT22;43657;52.698;6.314;2023-04-25T14:14:53;11.30;99.90
57829;DHT22;43657;52.698;6.314;2023-04-25T14:17:19;12.10;99.90
57829;DHT22;43657;52.698;6.314;2023-04-25T14:19:45;12.70;99.90
57829;DHT22;43657;52.698;6.314;2023-04-25T14:22:11;12.40;97.40
57829;DHT22;43657;52.698;6.314;2023-04-25T14:24:36;12.00;99.90
57829;DHT22;43657;52.698;6.314;2023-04-25T14:27:02;11.70;99.90
57829;DHT22;43657;52.698;6.314;2023-04-25T14:29:31;11.60;99.90
57829;DHT22;43657;52.698;6.314;2023-04-25T14:31:56;11.20;99.90
57829;DHT22;43657;52.698;6.314;2023-04-25T14:34:24;10.80;99.90
57829;DHT22;43657;52.698;6.314;2023-04-25T14:36:51;10.50;99.90
57829;DHT22;43657;52.698;6.314;2023-04-25T14:39:17;10.30;99.90
57829;DHT22;43657;52.698;6.314;2023-04-25T14:41:42;10.10;99.90
57829;DHT22;43657;52.698;6.314;2023-04-25T14:44:08;10.10;99.90
57829;DHT22;43657;52.698;6.314;2023-04-25T14:46:33;10.20;99.90
57829;DHT22;43657;52.698;6.314;2023-04-25T14:48:59;10.20;99.90
57829;DHT22;43657;52.698;6.314;2023-04-25T14:51:25;10.30;99.90
57829;DHT22;43657;52.698;6.314;2023-04-25T14:53:52;10.60;99.90
57829;DHT22;43657;52.698;6.314;2023-04-25T14:56:18;11.00;99.90
57829;DHT22;43657;52.698;6.314;2023-04-25T14:58:44;11.40;99.90
57829;DHT22;43657;52.698;6.314;2023-04-25T15:01:12;11.50;99.90
57829;DHT22;43657;52.698;6.314;2023-04-25T15:03:39;11.40;99.90
57829;DHT22;43657;52.698;6.314;2023-04-25T15:06:05;11.10;99.90
57829;DHT22;43657;52.698;6.314;2023-04-25T15:08:31;10.80;99.90
57829;DHT22;43657;52.698;6.314;2023-04-25T15:10:58;10.50;99.90
57829;DHT22;43657;52.698;6.314;2023-04-25T15:13:24;10.20;99.90
57829;DHT22;43657;52.698;6.314;2023-04-25T15:15:50;10.00;99.90
57829;DHT22;43657;52.698;6.314;2023-04-25T15:18:21;9.80;99.90
57829;DHT22;43657;52.698;6.314;2023-04-25T15:20:53;9.70;99.90
57829;DHT22;43657;52.698;6.314;2023-04-25T15:23:21;9.70;99.90
57829;DHT22;43657;52.698;6.314;2023-04-25T15:25:47;9.90;99.90
57829;DHT22;43657;52.698;6.314;2023-04-25T15:28:12;9.90;99.90
57829;DHT22;43657;52.698;6.314;2023-04-25T15:30:41;9.80;99.90
57829;DHT22;43657;52.698;6.314;2023-04-25T15:33:07;9.70;99.90
57829;DHT22;43657;52.698;6.314;2023-04-25T15:35:32;9.60;99.90
57829;DHT22;43657;52.698;6.314;2023-04-25T15:37:58;9.60;99.90
57829;DHT22;43657;52.698;6.314;2023-04-25T15:40:23;9.50;99.90